Milwaukee, Wisconsin
Traffic Map
Current Weather Conditions
Milwaukee, Wisconsin
Overcast Haze
Overcast
10°
Feels Like: 10°
Wind Chill: 10° Ceiling: 600
Heat Index: 10° Visibility: 3mi
Dew Point: Wind: 7mph
Humidity: 89% Direction: 180° (S)
Pressure: 29.49in Gusts: 0mph
Raw Report DataKMKE 211702Z 18006KT 3SM BR OVC006 10/08 A2949 RMK AO2 SFC VIS 4 T01000083
Traffic Incident Summary
Active as of:
Severity:
Category:
InformationThere was an issue retrieving the traffic information for this location. Please try a different location or try again shortly.
Advertisements
Track Severe Weather on mobile